createdAt,value
2023-12-10T00:00:19.144Z,11.77
2023-12-10T00:05:38.560Z,13.52
2023-12-10T00:10:46.820Z,19.67
2023-12-10T00:13:14.927Z,16.08
2023-12-10T00:15:54.646Z,16.35
2023-12-10T00:31:37.385Z,13.70
2023-12-10T00:39:36.109Z,33.53
2023-12-10T00:42:05.405Z,21.13
2023-12-10T00:44:35.356Z,15.90
2023-12-10T00:47:09.345Z,28.15
2023-12-10T00:52:34.760Z,24.80
2023-12-10T00:55:06.540Z,25.45
2023-12-10T01:02:57.807Z,34.92
2023-12-10T01:08:07.940Z,10.45
2023-12-10T01:10:37.754Z,25.42
2023-12-10T01:13:07.744Z,15.85
2023-12-10T01:15:36.352Z,14.60
2023-12-10T01:18:07.680Z,21.67
2023-12-10T01:23:26.168Z,25.92
2023-12-10T01:31:21.634Z,27.02
2023-12-10T01:36:41.776Z,18.63
2023-12-10T01:39:12.385Z,25.55
2023-12-10T01:44:27.051Z,19.90
2023-12-10T01:49:43.360Z,24.70
2023-12-10T01:52:21.829Z,25.92
2023-12-10T01:57:39.604Z,23.00
2023-12-10T02:00:21.082Z,13.73
2023-12-10T02:02:53.161Z,23.73
2023-12-10T02:08:09.366Z,25.83
2023-12-10T02:10:44.169Z,22.65
2023-12-10T02:13:21.000Z,16.38
2023-12-10T02:15:53.120Z,23.17
2023-12-10T02:26:44.917Z,15.93
2023-12-10T02:29:23.023Z,14.88
2023-12-10T02:31:56.227Z,15.98
2023-12-10T02:34:26.925Z,28.40
2023-12-10T02:39:37.975Z,17.85
2023-12-10T02:42:16.327Z,28.45
2023-12-10T02:47:28.028Z,32.67
2023-12-10T02:49:57.174Z,30.17
2023-12-10T02:52:25.485Z,16.48
2023-12-10T02:57:58.759Z,13.25
2023-12-10T03:00:32.385Z,16.70
2023-12-10T03:03:04.800Z,23.58
2023-12-10T03:05:34.435Z,22.48
2023-12-10T03:10:47.080Z,24.15
2023-12-10T03:13:22.392Z,30.95
2023-12-10T03:15:56.064Z,19.80
2023-12-10T03:21:16.306Z,14.57
2023-12-10T03:23:46.083Z,17.20
2023-12-10T03:26:18.046Z,20.95
2023-12-10T03:28:46.037Z,22.05
2023-12-10T03:31:25.320Z,17.92
2023-12-10T03:33:54.938Z,10.65
2023-12-10T03:36:25.695Z,9.55
2023-12-10T03:38:53.385Z,23.85
2023-12-10T03:41:24.414Z,15.23
2023-12-10T03:43:52.236Z,31.00
2023-12-10T03:46:22.718Z,23.50
2023-12-10T03:48:53.519Z,8.23
2023-12-10T03:51:21.321Z,21.73
2023-12-10T03:53:54.368Z,16.33
2023-12-10T03:56:25.767Z,26.75
2023-12-10T03:58:56.268Z,15.40
2023-12-10T04:01:28.519Z,12.95
2023-12-10T04:03:57.241Z,19.60
2023-12-10T04:06:25.816Z,8.93
2023-12-10T04:08:55.763Z,13.10
2023-12-10T04:11:26.156Z,25.20
2023-12-10T04:13:54.056Z,30.40
2023-12-10T04:16:29.121Z,15.82
2023-12-10T04:18:58.440Z,19.10
2023-12-10T04:21:27.465Z,13.73
2023-12-10T04:23:58.024Z,11.50
2023-12-10T04:26:27.033Z,11.82
2023-12-10T04:28:54.999Z,15.55
2023-12-10T04:31:23.677Z,12.60
2023-12-10T04:33:55.600Z,17.90
2023-12-10T04:36:28.179Z,15.48
2023-12-10T04:38:56.830Z,15.10
2023-12-10T04:41:24.916Z,15.32
2023-12-10T04:44:03.948Z,18.00
2023-12-10T04:46:40.919Z,9.63
2023-12-10T04:49:14.329Z,8.43
2023-12-10T04:51:44.158Z,13.90
2023-12-10T04:54:12.758Z,11.60
2023-12-10T04:56:43.774Z,17.88
2023-12-10T04:59:17.663Z,12.60
2023-12-10T05:01:49.252Z,21.27
2023-12-10T05:04:19.110Z,17.08
2023-12-10T05:06:49.000Z,12.48
2023-12-10T05:09:16.411Z,15.98
2023-12-10T05:11:49.605Z,14.85
2023-12-10T05:14:20.982Z,8.77
2023-12-10T05:16:51.202Z,12.20
2023-12-10T05:19:22.398Z,12.80
2023-12-10T05:21:50.496Z,14.20
2023-12-10T05:24:21.533Z,13.70
2023-12-10T05:27:00.441Z,21.02
2023-12-10T05:29:35.490Z,10.63
2023-12-10T05:32:09.954Z,13.00
2023-12-10T05:34:37.681Z,19.55
2023-12-10T05:37:10.706Z,13.85
2023-12-10T05:39:41.797Z,12.85
2023-12-10T05:42:11.873Z,9.40
2023-12-10T05:44:50.569Z,10.65
2023-12-10T05:47:23.408Z,13.48
2023-12-10T05:49:51.227Z,12.15
2023-12-10T05:52:30.807Z,10.75
2023-12-10T05:55:14.745Z,14.18
2023-12-10T05:57:42.560Z,6.28
2023-12-10T06:00:12.078Z,7.70
2023-12-10T06:02:40.743Z,21.75
2023-12-10T06:05:12.764Z,13.57
2023-12-10T06:07:43.073Z,5.65
2023-12-10T06:10:12.791Z,9.20
2023-12-10T06:12:43.350Z,10.93
2023-12-10T06:15:11.739Z,9.25
2023-12-10T06:17:43.883Z,18.40
2023-12-10T06:20:14.036Z,7.63
2023-12-10T06:22:51.431Z,8.85
2023-12-10T06:25:24.502Z,6.13
2023-12-10T06:27:53.491Z,9.85
2023-12-10T06:36:08.213Z,11.57
2023-12-10T06:41:18.575Z,5.30
2023-12-10T06:43:48.495Z,10.13
2023-12-10T06:46:19.831Z,12.43
2023-12-10T06:48:49.046Z,9.00
2023-12-10T06:51:17.082Z,11.73
2023-12-10T06:53:50.415Z,8.85
2023-12-10T06:56:20.554Z,14.27
2023-12-10T06:58:55.442Z,9.25
2023-12-10T07:01:27.402Z,13.52
2023-12-10T07:03:56.760Z,4.95
2023-12-10T07:06:25.160Z,15.27
2023-12-10T07:08:54.765Z,9.15
2023-12-10T07:11:23.278Z,8.25
2023-12-10T07:13:51.462Z,8.88
2023-12-10T07:16:22.605Z,9.15
2023-12-10T07:18:51.705Z,8.50
2023-12-10T07:21:26.500Z,4.53
2023-12-10T07:23:53.992Z,18.33
2023-12-10T07:26:28.703Z,16.50
2023-12-10T07:28:56.432Z,8.98
2023-12-10T07:31:25.854Z,9.25
2023-12-10T07:33:56.958Z,11.88
2023-12-10T07:36:25.000Z,12.75
2023-12-10T07:38:55.448Z,7.40
2023-12-10T07:41:23.826Z,8.75
2023-12-10T07:43:54.775Z,9.95
2023-12-10T07:46:34.573Z,10.50
2023-12-10T07:49:04.032Z,6.40
2023-12-10T07:51:35.758Z,8.18
2023-12-10T07:54:07.732Z,8.23
2023-12-10T07:56:36.897Z,7.18
2023-12-10T07:59:06.289Z,5.50
2023-12-10T08:01:34.364Z,4.82
2023-12-10T08:04:06.110Z,5.55
2023-12-10T08:06:34.677Z,7.57
2023-12-10T08:09:11.882Z,3.03
2023-12-10T08:11:41.755Z,13.05
2023-12-10T08:14:11.266Z,4.93
2023-12-10T08:16:39.166Z,2.42
2023-12-10T08:19:16.865Z,4.07
2023-12-10T08:21:45.370Z,2.13
2023-12-10T08:24:15.801Z,9.02
2023-12-10T08:26:45.631Z,5.55
2023-12-10T08:29:15.904Z,1.10
2023-12-10T08:31:46.885Z,4.50
2023-12-10T08:45:37.405Z,3.20
2023-12-10T08:53:28.739Z,4.35
2023-12-10T09:01:23.958Z,4.22
2023-12-10T09:03:52.597Z,12.23
2023-12-10T09:19:56.493Z,0.93
2023-12-10T09:22:51.677Z,9.95
2023-12-10T09:39:06.009Z,1.05
2023-12-10T10:13:13.060Z,7.60
2023-12-10T10:40:44.174Z,4.50
2023-12-10T10:48:59.584Z,5.43
2023-12-10T11:02:31.822Z,7.03
2023-12-10T11:43:47.163Z,6.15
2023-12-10T12:11:06.339Z,1.58
2023-12-10T12:16:29.897Z,6.53
2023-12-10T12:21:43.404Z,6.32
2023-12-10T12:24:13.966Z,7.63
2023-12-10T12:40:29.519Z,6.72
2023-12-10T12:51:15.547Z,13.57
2023-12-10T12:54:12.162Z,6.85
2023-12-10T12:56:51.502Z,4.55
2023-12-10T13:07:51.272Z,10.10
2023-12-10T13:26:38.077Z,12.32
2023-12-10T13:29:17.063Z,16.35
2023-12-10T13:37:21.533Z,16.35
2023-12-10T13:47:57.244Z,23.45
2023-12-10T13:55:51.851Z,29.17
2023-12-10T13:58:20.750Z,28.95
2023-12-10T14:03:34.773Z,13.90
2023-12-10T14:06:13.413Z,22.58
2023-12-10T14:14:14.092Z,23.02
2023-12-10T14:24:54.283Z,22.10
2023-12-10T14:41:21.776Z,13.25
2023-12-10T14:46:36.345Z,21.58
2023-12-10T14:51:59.217Z,20.13
2023-12-10T14:57:27.302Z,18.27
2023-12-10T15:53:34.848Z,15.60
2023-12-10T17:11:57.598Z,12.40
2023-12-10T17:47:15.961Z,10.48
2023-12-10T17:58:09.411Z,18.40
2023-12-10T18:12:03.990Z,16.88
2023-12-10T18:49:44.173Z,27.02
2023-12-10T20:09:23.303Z,13.10
2023-12-10T20:34:26.070Z,15.63
2023-12-10T21:01:46.126Z,15.82
2023-12-10T21:29:12.670Z,20.98
2023-12-10T21:51:42.502Z,12.70
2023-12-10T22:02:32.558Z,18.27
2023-12-10T22:07:43.938Z,5.32
2023-12-10T22:29:10.446Z,18.25
2023-12-10T22:34:29.664Z,8.30
2023-12-10T22:36:57.513Z,2.50
2023-12-10T22:50:35.131Z,9.38
2023-12-10T22:53:09.716Z,5.60
2023-12-10T22:58:36.399Z,8.07
2023-12-10T23:01:26.564Z,8.50
2023-12-10T23:04:00.340Z,3.95
2023-12-10T23:06:33.080Z,7.63
2023-12-10T23:09:08.570Z,3.22
2023-12-10T23:14:36.072Z,7.05
2023-12-10T23:17:09.364Z,3.83
2023-12-10T23:25:38.163Z,4.65
2023-12-10T23:42:02.591Z,5.82
2023-12-10T23:52:52.834Z,8.82
2023-12-10T23:55:31.060Z,10.65
